Time;durP1;ratioP1;P1;durP2;ratioP2;P2;SDS_P1;SDS_P2;PMS_P1;PMS_P2;Temp;Humidity;BMP_temperature;BMP_pressure;BME280_temperature;BME280_humidity;BME280_pressure;Samples;Min_cycle;Max_cycle;Signal;HPM_P1;HPM_P2
2023/10/16 00:00:33;;;;;;;6.55;2.45;;;20.40;61.40;;;;;;5117939;27;20023;-57
2023/10/16 00:03:00;;;;;;;10.38;3.28;;;20.40;61.20;;;;;;5120301;27;20034;-58
2023/10/16 00:05:35;;;;;;;8.80;2.80;;;20.40;61.30;;;;;;5120330;27;20069;-53
2023/10/16 00:08:07;;;;;;;8.88;2.60;;;20.40;61.50;;;;;;5121443;27;20030;-56
2023/10/16 00:10:35;;;;;;;7.45;2.58;;;20.40;61.50;;;;;;5131944;27;20375;-57
2023/10/16 00:13:05;;;;;;;8.98;2.55;;;20.40;61.60;;;;;;5128941;27;20037;-58
2023/10/16 00:15:40;;;;;;;6.28;2.20;;;20.40;61.50;;;;;;5124181;27;20030;-54
2023/10/16 00:18:18;;;;;;;9.05;2.35;;;20.30;61.50;;;;;;5151162;27;20034;-55
2023/10/16 00:20:44;;;;;;;6.15;2.33;;;20.30;61.50;;;;;;5133131;27;20073;-58
2023/10/16 00:23:11;;;;;;;5.53;2.35;;;20.40;61.50;;;;;;5132783;27;20019;-54
2023/10/16 00:25:39;;;;;;;7.20;2.88;;;20.30;61.60;;;;;;5123871;27;20024;-55
2023/10/16 00:28:09;;;;;;;5.05;2.65;;;20.40;61.70;;;;;;5118849;27;20125;-57
2023/10/16 00:30:40;;;;;;;8.45;2.83;;;20.30;61.70;;;;;;5119742;27;20049;-57
2023/10/16 00:33:10;;;;;;;6.68;2.90;;;20.30;61.60;;;;;;5105660;27;20066;-55
2023/10/16 00:35:41;;;;;;;6.50;2.22;;;20.30;61.70;;;;;;5105190;28;20058;-57
2023/10/16 00:38:12;;;;;;;5.75;2.30;;;20.30;61.70;;;;;;5123907;27;20023;-56
2023/10/16 00:40:51;;;;;;;7.20;2.75;;;20.30;61.80;;;;;;5127883;27;20034;-59
2023/10/16 00:43:22;;;;;;;8.73;2.40;;;20.30;61.80;;;;;;5120104;27;20031;-54
2023/10/16 00:45:59;;;;;;;7.80;2.38;;;20.30;61.80;;;;;;5128308;27;20072;-56
2023/10/16 00:48:26;;;;;;;4.38;2.17;;;20.30;61.90;;;;;;5147835;27;20023;-58
2023/10/16 00:50:52;;;;;;;5.82;2.13;;;20.30;61.80;;;;;;5113920;27;20060;-58
2023/10/16 00:53:27;;;;;;;5.50;2.58;;;20.30;61.80;;;;;;5122047;27;20106;-58
2023/10/16 00:55:55;;;;;;;7.60;2.80;;;20.30;61.90;;;;;;5129662;27;20030;-58
2023/10/16 00:58:21;;;;;;;5.53;2.47;;;20.30;61.90;;;;;;5106892;28;20047;-53
2023/10/16 01:00:48;;;;;;;6.53;2.40;;;20.30;61.90;;;;;;5127874;28;20285;-57
2023/10/16 01:03:16;;;;;;;6.38;2.50;;;20.30;61.90;;;;;;5101138;28;20032;-54
2023/10/16 01:05:42;;;;;;;8.55;2.35;;;20.30;61.90;;;;;;5101955;28;20474;-57
2023/10/16 01:08:11;;;;;;;6.22;2.08;;;20.30;61.80;;;;;;5104979;28;20049;-58
2023/10/16 01:10:41;;;;;;;5.75;2.45;;;20.30;61.80;;;;;;5121856;28;20073;-58
2023/10/16 01:13:16;;;;;;;8.82;2.78;;;20.30;61.80;;;;;;5119494;28;20034;-55
2023/10/16 01:15:50;;;;;;;5.32;2.03;;;20.30;61.80;;;;;;5128696;27;20035;-56
2023/10/16 01:18:17;;;;;;;9.15;2.25;;;20.30;61.80;;;;;;5137905;27;20402;-58
2023/10/16 01:20:48;;;;;;;5.57;2.30;;;20.30;61.80;;;;;;5111966;28;20020;-57
2023/10/16 01:23:22;;;;;;;4.97;2.13;;;20.30;62.00;;;;;;5106164;27;20390;-56
2023/10/16 01:25:49;;;;;;;5.93;2.38;;;20.30;61.80;;;;;;5126441;27;20019;-58
2023/10/16 01:28:19;;;;;;;5.47;2.40;;;20.30;62.00;;;;;;5127757;27;20394;-53
2023/10/16 01:30:49;;;;;;;5.47;2.40;;;20.30;62.00;;;;;;5124361;27;20032;-56
2023/10/16 01:33:16;;;;;;;;;;;20.30;62.10;;;;;;5112177;28;20102;-55
2023/10/16 01:35:45;;;;;;;6.40;2.53;;;20.30;62.10;;;;;;5109963;27;19911;-58
2023/10/16 01:38:15;;;;;;;8.13;2.40;;;20.30;61.80;;;;;;5123227;27;20038;-55
2023/10/16 01:40:47;;;;;;;;;;;20.30;61.80;;;;;;5133251;27;20504;-56
2023/10/16 01:43:15;;;;;;;10.85;2.65;;;20.30;61.70;;;;;;5135250;27;19908;-57
2023/10/16 01:45:52;;;;;;;3.47;1.95;;;20.30;61.80;;;;;;5126170;27;20027;-58
2023/10/16 01:48:19;;;;;;;4.40;2.30;;;20.30;61.80;;;;;;5123306;27;20558;-57
2023/10/16 01:50:49;;;;;;;5.47;2.33;;;20.30;61.70;;;;;;5146289;27;20416;-57
2023/10/16 01:53:20;;;;;;;6.30;2.40;;;20.30;61.70;;;;;;5127127;27;20031;-57
2023/10/16 01:55:55;;;;;;;4.05;2.30;;;20.20;61.70;;;;;;5133497;27;20023;-57
2023/10/16 01:58:25;;;;;;;5.47;2.50;;;20.30;61.80;;;;;;5104444;28;20110;-58
2023/10/16 02:00:54;;;;;;;4.38;2.10;;;20.30;61.90;;;;;;5105644;27;20031;-57
2023/10/16 02:03:22;;;;;;;6.72;2.30;;;20.30;62.30;;;;;;5124782;27;20027;-55
2023/10/16 02:05:48;;;;;;;7.35;2.30;;;20.30;62.10;;;;;;5126946;27;20023;-57
2023/10/16 02:08:15;;;;;;;5.35;2.33;;;20.30;61.90;;;;;;5111358;28;20024;-58
2023/10/16 02:10:42;;;;;;;5.05;2.30;;;20.30;62.10;;;;;;5132156;27;20062;-56
2023/10/16 02:13:10;;;;;;;6.72;2.55;;;20.30;62.00;;;;;;5107945;27;20034;-57
2023/10/16 02:15:37;;;;;;;6.57;2.30;;;20.30;62.00;;;;;;5106724;27;20047;-54
2023/10/16 02:18:07;;;;;;;8.07;2.75;;;20.30;62.10;;;;;;5119751;27;20096;-55
2023/10/16 02:20:36;;;;;;;6.53;2.65;;;20.20;62.10;;;;;;5116673;27;20067;-55
2023/10/16 02:23:07;;;;;;;4.97;2.40;;;20.30;62.20;;;;;;5130941;27;20114;-56
2023/10/16 02:25:34;;;;;;;5.50;2.40;;;20.30;62.10;;;;;;5111608;27;20347;-56
2023/10/16 02:28:00;;;;;;;3.72;2.20;;;20.30;62.10;;;;;;5125201;27;20513;-57
2023/10/16 02:32:59;;;;;;;7.07;2.47;;;20.20;62.20;;;;;;5104487;27;20066;-57
2023/10/16 02:35:25;;;;;;;6.82;2.15;;;20.20;62.10;;;;;;5134946;27;20131;-55
2023/10/16 02:37:53;;;;;;;6.80;2.60;;;20.20;62.20;;;;;;5114105;27;20035;-53
2023/10/16 02:40:25;;;;;;;6.68;2.65;;;20.20;62.20;;;;;;5121934;27;20482;-56
2023/10/16 02:43:37;;;;;;;5.93;2.30;;;20.20;62.50;;;;;;5103588;27;20525;-56
2023/10/16 02:45:37;;;;;;;4.78;2.35;;;20.20;62.20;;;;;;5116011;27;20043;-57
2023/10/16 02:48:09;;;;;;;6.05;2.70;;;20.20;62.20;;;;;;5120059;27;20039;-55
2023/10/16 02:50:35;;;;;;;7.18;2.55;;;20.20;62.40;;;;;;5129833;27;20485;-56
2023/10/16 02:53:06;;;;;;;4.57;2.30;;;20.20;62.50;;;;;;5126819;27;20560;-56
2023/10/16 02:55:32;;;;;;;8.60;2.60;;;20.20;62.10;;;;;;5130065;27;20035;-51
2023/10/16 02:58:04;;;;;;;5.70;2.20;;;20.20;62.10;;;;;;5114555;27;21314;-56
2023/10/16 03:00:38;;;;;;;7.20;2.50;;;20.20;62.20;;;;;;5124576;27;20027;-56
2023/10/16 03:03:06;;;;;;;5.30;2.53;;;20.20;62.20;;;;;;5103217;28;20055;-55
2023/10/16 03:05:32;;;;;;;8.50;2.72;;;20.20;62.70;;;;;;5094723;27;20045;-53
2023/10/16 03:07:58;;;;;;;6.60;2.58;;;20.10;62.60;;;;;;5125093;27;20493;-56
2023/10/16 03:10:26;;;;;;;5.38;2.50;;;20.10;62.60;;;;;;5124668;27;20102;-55
2023/10/16 03:12:52;;;;;;;6.13;2.65;;;20.10;62.10;;;;;;5131276;27;20037;-53
2023/10/16 03:15:26;;;;;;;4.15;2.17;;;20.10;63.00;;;;;;5105788;28;20085;-58
2023/10/16 03:17:54;;;;;;;7.32;2.30;;;20.10;62.20;;;;;;5129554;27;20015;-58
2023/10/16 03:20:35;;;;;;;5.85;2.28;;;20.20;62.20;;;;;;5134017;27;20104;-56
2023/10/16 03:23:01;;;;;;;7.05;2.50;;;20.20;62.30;;;;;;5132847;27;20094;-57
2023/10/16 03:28:14;;;;;;;6.90;2.42;;;20.10;62.20;;;;;;5135864;27;20034;-56
2023/10/16 03:30:42;;;;;;;4.68;2.40;;;20.20;62.30;;;;;;5123929;27;20030;-57
2023/10/16 03:33:08;;;;;;;5.22;2.50;;;20.10;62.30;;;;;;5121492;27;20096;-56
2023/10/16 03:35:38;;;;;;;6.25;2.30;;;20.10;62.90;;;;;;5120749;27;20035;-56
2023/10/16 03:38:10;;;;;;;5.90;2.20;;;20.10;62.20;;;;;;5111134;28;20023;-58
2023/10/16 03:40:36;;;;;;;6.13;2.50;;;20.10;62.20;;;;;;5129774;27;20058;-58
2023/10/16 03:43:02;;;;;;;5.43;2.22;;;20.20;62.20;;;;;;5128009;27;20055;-57
2023/10/16 03:45:28;;;;;;;5.80;2.65;;;20.20;62.40;;;;;;5123227;27;20100;-58
2023/10/16 03:47:58;;;;;;;5.40;2.50;;;20.20;62.30;;;;;;5122048;27;20027;-58
2023/10/16 03:50:25;;;;;;;5.72;2.47;;;20.20;62.60;;;;;;5123436;27;20112;-57
2023/10/16 03:52:57;;;;;;;17.95;2.85;;;20.30;62.30;;;;;;5139498;27;20031;-56
2023/10/16 03:55:24;;;;;;;12.50;2.50;;;20.30;62.70;;;;;;5132489;27;20031;-56
2023/10/16 03:57:55;;;;;;;8.80;2.40;;;20.30;63.20;;;;;;5120432;27;20024;-56
2023/10/16 04:00:50;;;;;;;9.15;3.15;;;20.30;63.10;;;;;;5123166;27;20030;-58
2023/10/16 04:03:21;;;;;;;10.68;2.42;;;20.30;62.90;;;;;;5120495;27;20106;-56
2023/10/16 04:05:48;;;;;;;15.45;2.72;;;20.30;62.60;;;;;;5128878;27;20102;-57
2023/10/16 04:08:15;;;;;;;10.75;2.50;;;20.30;63.10;;;;;;5120366;27;20027;-56
2023/10/16 04:10:46;;;;;;;6.82;2.20;;;20.30;62.80;;;;;;5126471;27;20027;-55
2023/10/16 04:13:14;;;;;;;8.02;2.33;;;20.30;62.70;;;;;;5121017;27;20554;-56
2023/10/16 04:26:29;;;;;;;10.10;2.40;;;20.30;61.70;;;;;;5125805;27;20031;-58
2023/10/16 04:31:45;;;;;;;9.00;2.63;;;20.30;61.80;;;;;;5119666;27;20038;-58
2023/10/16 04:34:25;;;;;;;5.40;2.40;;;20.30;61.90;;;;;;5131813;27;20035;-58
2023/10/16 04:42:50;;;;;;;5.78;2.47;;;20.20;62.00;;;;;;5126006;27;20096;-58
2023/10/16 04:50:37;;;;;;;7.00;2.50;;;20.20;61.70;;;;;;5101457;28;20035;-56
2023/10/16 04:53:08;;;;;;;8.52;2.83;;;20.20;61.90;;;;;;5131686;27;20023;-58
2023/10/16 05:09:53;;;;;;;13.98;3.17;;;20.20;62.00;;;;;;5129029;28;20019;-57
2023/10/16 05:17:59;;;;;;;3.97;2.20;;;20.20;62.20;;;;;;5133316;22;20058;-51
2023/10/16 06:15:07;;;;;;;10.52;2.63;;;20.20;61.90;;;;;;5110518;28;20028;-51
2023/10/16 06:17:37;;;;;;;3.97;2.08;;;20.20;62.10;;;;;;5114895;28;20019;-52
2023/10/16 06:20:04;;;;;;;7.15;2.70;;;20.20;62.10;;;;;;5114946;28;20062;-55
2023/10/16 06:22:30;;;;;;;6.05;2.45;;;20.20;62.20;;;;;;5111420;28;20448;-55
2023/10/16 06:24:56;;;;;;;6.38;2.45;;;20.20;61.90;;;;;;5114703;28;20052;-54
2023/10/16 06:27:22;;;;;;;7.38;2.78;;;20.20;61.80;;;;;;5113527;28;20020;-53
2023/10/16 06:29:52;;;;;;;5.13;2.33;;;20.20;62.00;;;;;;5114575;28;20027;-54
2023/10/16 06:32:21;;;;;;;7.95;2.80;;;20.30;62.00;;;;;;5111433;28;20073;-50
2023/10/16 06:34:52;;;;;;;6.30;2.50;;;20.30;62.30;;;;;;5111357;28;20398;-51
2023/10/16 06:37:18;;;;;;;7.03;2.45;;;20.30;62.20;;;;;;5097138;27;20550;-49
2023/10/16 06:39:48;;;;;;;3.65;2.33;;;20.30;62.20;;;;;;5096618;28;20039;-52
2023/10/16 06:42:17;;;;;;;3.40;2.20;;;20.30;62.30;;;;;;5114152;28;20474;-51
2023/10/16 06:44:53;;;;;;;6.95;2.30;;;20.30;62.10;;;;;;5113463;28;20027;-49
2023/10/16 06:47:35;;;;;;;6.45;2.55;;;20.30;62.40;;;;;;5115193;27;20067;-55
2023/10/16 06:50:53;;;;;;;10.23;3.25;;;20.30;62.20;;;;;;5114560;28;20034;-56
2023/10/16 06:52:53;;;;;;;16.58;3.15;;;20.30;62.40;;;;;;5103460;28;20034;-51
2023/10/16 06:55:21;;;;;;;36.05;4.53;;;20.30;62.70;;;;;;5113545;28;20496;-55
2023/10/16 06:57:47;;;;;;;26.40;4.20;;;20.30;65.10;;;;;;5117469;28;20091;-56
2023/10/16 07:00:25;;;;;;;22.10;3.85;;;20.30;65.70;;;;;;5097846;28;20507;-51
2023/10/16 07:02:54;;;;;;;14.95;3.10;;;20.30;64.90;;;;;;5111349;28;20386;-56
2023/10/16 07:05:24;;;;;;;16.35;3.65;;;20.30;64.30;;;;;;5107494;28;20031;-51
2023/10/16 07:07:56;;;;;;;13.10;4.05;;;20.40;65.90;;;;;;5113897;28;20019;-56
2023/10/16 07:10:23;;;;;;;13.70;3.40;;;20.40;65.10;;;;;;5103609;28;20042;-49
2023/10/16 07:13:02;;;;;;;22.60;3.78;;;20.40;65.10;;;;;;5109108;28;20372;-50
2023/10/16 07:15:29;;;;;;;12.80;2.95;;;20.40;66.20;;;;;;5103633;28;20025;-49
2023/10/16 07:18:05;;;;;;;14.57;3.47;;;20.40;66.00;;;;;;5113714;28;20016;-53
2023/10/16 07:20:33;;;;;;;15.93;3.20;;;20.40;65.30;;;;;;5107966;28;20020;-53
2023/10/16 07:23:00;;;;;;;15.95;3.03;;;20.40;66.50;;;;;;5107233;28;20034;-48
2023/10/16 07:25:37;;;;;;;15.20;3.33;;;20.40;66.90;;;;;;5112072;28;20035;-51
2023/10/16 07:28:09;;;;;;;13.25;3.22;;;20.40;67.10;;;;;;5111645;28;20483;-48
2023/10/16 07:30:42;;;;;;;14.27;3.15;;;20.40;66.80;;;;;;5113585;28;20404;-47
2023/10/16 07:33:14;;;;;;;24.40;3.78;;;20.30;66.80;;;;;;5113565;27;20031;-54
2023/10/16 07:36:08;;;;;;;15.40;4.13;;;20.30;66.60;;;;;;5113681;28;20031;-52
2023/10/16 07:38:34;;;;;;;14.55;4.07;;;20.30;67.60;;;;;;5113460;28;20027;-48
2023/10/16 07:41:00;;;;;;;15.43;2.80;;;20.30;66.40;;;;;;5112981;28;20486;-51
2023/10/16 07:43:32;;;;;;;21.35;3.70;;;20.40;67.20;;;;;;5113230;28;20077;-51
2023/10/16 07:48:42;;;;;;;11.27;3.55;;;20.40;68.90;;;;;;5113203;28;20060;-51
2023/10/16 07:51:08;;;;;;;11.13;3.47;;;20.40;68.40;;;;;;5112894;28;20019;-51
2023/10/16 07:53:34;;;;;;;13.07;3.30;;;20.40;67.50;;;;;;5113149;28;20402;-53
2023/10/16 07:56:02;;;;;;;11.18;3.35;;;20.40;67.10;;;;;;5112958;28;20486;-50
2023/10/16 07:58:34;;;;;;;9.57;3.00;;;20.50;67.50;;;;;;5112929;28;20122;-47
2023/10/16 08:01:41;;;;;;;15.57;3.30;;;20.50;67.30;;;;;;5112932;28;20034;-50
2023/10/16 08:07:04;;;;;;;18.45;3.65;;;20.60;69.10;;;;;;5113100;28;20043;-50
2023/10/16 08:10:39;;;;;;;;;;;20.40;67.10;;;;;;5109108;28;20032;-48
2023/10/16 08:12:19;;;;;;;10.63;2.53;;;20.30;62.00;;;;;;5095702;28;19915;-50
2023/10/16 08:14:46;;;;;;;7.28;2.42;;;20.10;58.60;;;;;;5108371;28;20019;-52
2023/10/16 08:17:17;;;;;;;10.77;3.03;;;20.20;59.10;;;;;;5109084;28;20031;-49
2023/10/16 08:19:44;;;;;;;12.35;2.80;;;20.20;58.70;;;;;;5108566;28;20570;-48
2023/10/16 08:22:13;;;;;;;11.23;2.70;;;20.20;60.30;;;;;;5109145;28;20301;-47
2023/10/16 08:24:57;;;;;;;8.70;2.42;;;20.30;62.00;;;;;;5108767;28;20103;-47
2023/10/16 08:27:48;;;;;;;13.13;2.47;;;20.30;63.50;;;;;;5109362;28;20579;-50
2023/10/16 08:33:08;;;;;;;8.18;2.50;;;20.30;65.00;;;;;;5108671;28;20523;-47
2023/10/16 08:35:41;;;;;;;9.05;2.65;;;20.30;64.80;;;;;;5108394;28;20034;-49
2023/10/16 08:38:15;;;;;;;9.27;2.85;;;20.30;65.10;;;;;;5109100;28;20115;-46
2023/10/16 08:40:45;;;;;;;6.70;2.38;;;20.40;65.20;;;;;;5108142;28;20036;-48
2023/10/16 08:43:17;;;;;;;10.82;2.72;;;20.30;64.70;;;;;;5108378;28;20031;-52
2023/10/16 08:45:48;;;;;;;10.45;2.35;;;20.30;64.70;;;;;;5111134;28;20106;-49
2023/10/16 08:48:17;;;;;;;8.93;3.03;;;20.40;64.90;;;;;;5106834;28;20016;-51
2023/10/16 08:50:52;;;;;;;22.27;2.83;;;20.40;64.40;;;;;;5107632;28;20059;-49
2023/10/16 08:53:31;;;;;;;14.65;2.58;;;20.40;64.30;;;;;;5103624;28;20487;-54
2023/10/16 08:56:07;;;;;;;6.63;2.53;;;20.40;64.10;;;;;;5109244;28;20036;-51
2023/10/16 08:58:49;;;;;;;12.68;2.83;;;20.40;64.20;;;;;;5104504;28;20023;-45
2023/10/16 09:01:16;;;;;;;16.73;3.08;;;20.40;63.90;;;;;;5109185;28;20509;-49
2023/10/16 09:03:46;;;;;;;9.77;2.67;;;20.50;63.90;;;;;;5111831;28;20410;-46
2023/10/16 09:06:22;;;;;;;9.45;2.35;;;20.40;63.50;;;;;;5106967;28;20069;-51
2023/10/16 09:08:49;;;;;;;8.30;2.72;;;20.50;64.10;;;;;;5109899;28;20024;-48
2023/10/16 09:11:16;;;;;;;6.57;2.42;;;20.50;63.90;;;;;;5109527;28;20105;-46
2023/10/16 09:13:49;;;;;;;13.43;3.08;;;20.50;63.40;;;;;;5111277;28;20024;-50
2023/10/16 09:16:15;;;;;;;11.55;2.70;;;20.50;63.10;;;;;;5111198;28;20448;-47
2023/10/16 09:18:42;;;;;;;12.30;2.75;;;20.50;63.50;;;;;;5111747;28;20077;-49
2023/10/16 09:21:13;;;;;;;9.07;2.60;;;20.40;62.20;;;;;;5111464;28;20561;-49
2023/10/16 09:23:40;;;;;;;7.38;2.33;;;20.40;62.30;;;;;;5107812;28;20176;-49
2023/10/16 09:26:10;;;;;;;6.85;2.30;;;20.50;62.00;;;;;;5104857;28;20035;-48
2023/10/16 09:28:38;;;;;;;10.75;2.42;;;20.50;62.10;;;;;;5101754;28;20240;-47
2023/10/16 09:31:06;;;;;;;5.40;2.13;;;20.50;62.80;;;;;;5104857;28;20058;-46
2023/10/16 09:33:35;;;;;;;10.27;2.38;;;20.50;62.50;;;;;;5110134;28;20023;-50
2023/10/16 09:36:23;;;;;;;10.45;2.85;;;20.50;62.90;;;;;;5107081;28;20505;-47
2023/10/16 09:38:56;;;;;;;12.15;2.88;;;20.50;62.80;;;;;;5107228;28;20024;-48
2023/10/16 09:43:56;;;;;;;14.40;2.75;;;20.50;63.10;;;;;;5111018;28;20028;-54
2023/10/16 09:49:14;;;;;;;10.00;2.67;;;20.50;62.90;;;;;;5113602;28;20035;-49
2023/10/16 09:51:44;;;;;;;16.58;3.03;;;20.60;63.10;;;;;;5113697;28;20111;-46
2023/10/16 09:54:11;;;;;;;8.18;2.22;;;20.50;63.20;;;;;;5113661;28;20020;-46
2023/10/16 09:56:39;;;;;;;8.60;2.33;;;20.50;63.20;;;;;;5115109;28;20022;-46
2023/10/16 09:59:12;;;;;;;9.38;2.45;;;20.60;62.80;;;;;;5115032;28;20398;-50
2023/10/16 10:01:45;;;;;;;8.45;2.30;;;20.60;63.20;;;;;;5114927;28;20451;-45
2023/10/16 10:04:18;;;;;;;18.70;3.05;;;20.60;63.70;;;;;;5114954;28;20077;-49
2023/10/16 10:06:48;;;;;;;14.70;3.00;;;20.60;64.30;;;;;;5113708;28;20023;-47
2023/10/16 10:12:04;;;;;;;12.18;2.72;;;20.60;68.30;;;;;;5114586;28;20099;-46
2023/10/16 10:14:39;;;;;;;11.90;2.85;;;20.60;67.90;;;;;;5115224;28;20377;-49
2023/10/16 10:17:19;;;;;;;12.60;2.65;;;20.40;66.80;;;;;;5114391;28;20049;-47
2023/10/16 10:19:54;;;;;;;14.90;2.30;;;20.30;64.80;;;;;;5114718;28;20055;-49
2023/10/16 10:22:27;;;;;;;5.93;2.00;;;20.10;63.80;;;;;;5114229;28;20024;-47
2023/10/16 10:25:17;;;;;;;13.10;2.35;;;20.10;60.40;;;;;;5114459;28;20047;-47
2023/10/16 10:27:44;;;;;;;11.18;2.13;;;20.00;57.70;;;;;;5113285;28;20031;-46
2023/10/16 10:30:17;;;;;;;13.98;3.05;;;20.00;57.70;;;;;;5114487;28;20437;-48
2023/10/16 10:32:50;;;;;;;19.85;3.83;;;20.10;58.10;;;;;;5114287;28;20371;-53
2023/10/16 10:35:38;;;;;;;22.20;3.17;;;20.10;57.20;;;;;;5113471;28;20028;-53
2023/10/16 10:38:21;;;;;;;11.45;3.00;;;20.10;57.00;;;;;;5114963;28;20031;-47
2023/10/16 10:41:19;;;;;;;14.75;2.35;;;20.20;57.80;;;;;;5114250;28;20110;-46
2023/10/16 10:43:58;;;;;;;6.05;2.42;;;20.20;58.40;;;;;;5051626;28;20436;-48
2023/10/16 10:46:28;;;;;;;17.10;2.83;;;20.20;58.40;;;;;;5051330;28;20048;-47
2023/10/16 10:48:54;;;;;;;8.75;2.47;;;20.30;59.00;;;;;;5051492;28;20455;-48
2023/10/16 10:51:25;;;;;;;10.38;2.78;;;20.30;59.60;;;;;;5051183;28;20025;-48
2023/10/16 10:53:58;;;;;;;8.73;2.40;;;20.30;59.40;;;;;;5051030;28;20103;-48
2023/10/16 10:56:50;;;;;;;12.75;2.40;;;20.30;60.10;;;;;;5051323;28;20032;-46
2023/10/16 10:59:41;;;;;;;8.52;2.25;;;20.30;59.80;;;;;;5051189;28;20045;-52
2023/10/16 11:02:22;;;;;;;8.32;2.22;;;20.30;59.90;;;;;;5034217;28;20566;-50
2023/10/16 11:04:58;;;;;;;7.47;2.28;;;20.20;60.10;;;;;;5051133;28;20037;-46
2023/10/16 11:07:29;;;;;;;7.65;2.35;;;20.30;60.30;;;;;;5050945;28;20029;-46
2023/10/16 11:09:57;;;;;;;7.97;2.78;;;20.30;60.40;;;;;;5051274;28;20090;-46
2023/10/16 11:12:26;;;;;;;8.68;2.45;;;20.30;60.60;;;;;;5050693;28;20415;-47
2023/10/16 11:14:56;;;;;;;9.23;2.47;;;20.30;60.70;;;;;;5051000;28;20036;-46
2023/10/16 11:17:34;;;;;;;9.85;2.40;;;20.30;61.00;;;;;;5141125;22;20047;-51
2023/10/16 11:22:46;;;;;;;10.00;2.50;;;20.20;61.10;;;;;;5133964;27;20027;-48
2023/10/16 11:25:13;;;;;;;10.05;2.67;;;20.20;61.20;;;;;;5134524;27;20031;-50
2023/10/16 11:27:42;;;;;;;6.63;2.38;;;20.30;60.80;;;;;;5134048;27;20023;-53
2023/10/16 11:30:18;;;;;;;7.55;2.30;;;20.30;61.30;;;;;;5134043;27;20031;-47
2023/10/16 11:32:49;;;;;;;19.73;2.97;;;20.30;61.40;;;;;;5132654;27;20027;-54
2023/10/16 11:35:17;;;;;;;7.13;2.58;;;20.30;61.90;;;;;;5134338;27;20438;-53
2023/10/16 11:37:52;;;;;;;11.43;2.60;;;20.30;61.90;;;;;;5134024;27;20027;-55
2023/10/16 11:40:24;;;;;;;7.47;2.42;;;20.40;61.80;;;;;;5133928;27;20063;-51
2023/10/16 11:42:52;;;;;;;14.38;3.10;;;20.30;62.00;;;;;;5133551;27;20027;-49
2023/10/16 11:45:24;;;;;;;17.90;3.38;;;20.30;62.00;;;;;;5133888;27;20023;-54
2023/10/16 11:48:46;;;;;;;18.02;2.90;;;20.30;62.40;;;;;;5133795;27;20485;-51
2023/10/16 11:50:41;;;;;;;7.75;2.50;;;20.30;62.60;;;;;;5122326;27;20039;-54
2023/10/16 11:53:08;;;;;;;18.70;2.72;;;20.30;62.60;;;;;;5133582;27;20065;-50
2023/10/16 11:55:38;;;;;;;8.27;2.47;;;20.30;62.40;;;;;;5133864;27;20442;-52
2023/10/16 11:58:06;;;;;;;7.00;2.15;;;20.30;62.60;;;;;;5134243;27;20046;-53
2023/10/16 12:00:35;;;;;;;17.10;3.22;;;20.30;62.70;;;;;;5132344;27;20092;-52
2023/10/16 12:03:07;;;;;;;12.38;2.80;;;20.30;62.70;;;;;;5133272;27;20050;-54
2023/10/16 12:05:34;;;;;;;11.73;2.90;;;20.30;62.60;;;;;;5132755;27;20390;-54
2023/10/16 12:08:02;;;;;;;11.00;2.42;;;20.30;62.70;;;;;;5133342;27;20615;-51
2023/10/16 12:10:29;;;;;;;11.45;2.92;;;20.30;62.50;;;;;;5133393;27;20026;-51
2023/10/16 12:12:55;;;;;;;7.82;2.55;;;20.30;62.60;;;;;;5133020;27;20512;-51
2023/10/16 12:15:24;;;;;;;10.20;2.83;;;20.30;62.70;;;;;;5133259;27;20031;-52
2023/10/16 12:17:50;;;;;;;10.02;2.40;;;20.30;62.40;;;;;;5133242;27;20414;-53
2023/10/16 12:20:16;;;;;;;8.65;2.60;;;20.30;62.40;;;;;;5133289;27;20023;-51
2023/10/16 12:22:44;;;;;;;9.25;2.85;;;20.30;62.60;;;;;;5132749;27;20027;-51
2023/10/16 12:25:10;;;;;;;7.50;2.72;;;20.30;62.60;;;;;;5133304;27;20027;-55
2023/10/16 12:27:39;;;;;;;9.38;2.75;;;20.30;62.60;;;;;;5133005;27;20558;-49
2023/10/16 12:30:12;;;;;;;10.47;2.73;;;20.30;62.40;;;;;;5133126;27;20027;-53
2023/10/16 12:32:38;;;;;;;8.77;2.63;;;20.40;62.80;;;;;;5132664;27;20023;-51
2023/10/16 12:35:08;;;;;;;9.77;3.15;;;20.30;62.60;;;;;;5132878;27;20098;-51
2023/10/16 12:37:34;;;;;;;8.80;2.65;;;20.30;62.60;;;;;;5132864;27;20118;-47
2023/10/16 12:40:24;;;;;;;7.75;2.47;;;20.30;62.90;;;;;;5133001;27;20063;-48
2023/10/16 12:42:46;;;;;;;19.50;2.83;;;20.30;62.60;;;;;;5132409;27;20110;-48
2023/10/16 12:45:11;;;;;;;7.60;2.70;;;20.30;62.50;;;;;;5132826;27;20098;-50
2023/10/16 12:47:37;;;;;;;6.03;2.47;;;20.30;62.60;;;;;;5132711;27;20071;-48
2023/10/16 12:50:05;;;;;;;10.50;2.40;;;20.30;62.60;;;;;;5132652;27;20020;-51
2023/10/16 12:52:31;;;;;;;9.82;2.88;;;20.30;62.80;;;;;;5132415;27;20028;-47
2023/10/16 12:55:00;;;;;;;5.22;2.42;;;20.30;62.70;;;;;;5132654;27;20027;-51
2023/10/16 12:57:28;;;;;;;5.88;2.20;;;20.30;62.60;;;;;;5132537;27;20031;-49
2023/10/16 12:59:56;;;;;;;7.38;2.10;;;20.30;62.60;;;;;;5132486;27;20409;-48
2023/10/16 13:02:28;;;;;;;6.45;2.35;;;20.30;62.60;;;;;;5132257;27;20069;-50
2023/10/16 13:04:55;;;;;;;9.82;2.60;;;20.20;62.70;;;;;;5132643;27;20086;-48
2023/10/16 13:07:24;;;;;;;9.45;2.25;;;20.30;62.90;;;;;;5131187;28;20027;-46
2023/10/16 13:09:53;;;;;;;6.88;2.40;;;20.30;62.80;;;;;;5132457;27;20020;-49
2023/10/16 13:12:21;;;;;;;7.68;2.63;;;20.30;62.70;;;;;;5132048;27;20498;-51
2023/10/16 13:14:49;;;;;;;7.45;2.67;;;20.20;62.90;;;;;;5132373;27;20027;-47
2023/10/16 13:17:15;;;;;;;9.40;2.95;;;20.30;62.60;;;;;;5133187;27;20429;-51
2023/10/16 13:19:41;;;;;;;12.43;2.80;;;20.20;63.00;;;;;;5136747;27;20061;-46
2023/10/16 13:22:15;;;;;;;11.57;2.80;;;20.20;62.90;;;;;;5136201;27;20058;-48
2023/10/16 13:24:42;;;;;;;7.32;2.80;;;20.20;62.90;;;;;;5136685;27;20394;-51
2023/10/16 13:27:07;;;;;;;8.18;2.90;;;20.30;62.80;;;;;;5136494;27;20384;-52
2023/10/16 13:29:37;;;;;;;5.82;2.60;;;20.20;62.70;;;;;;5136494;27;20047;-48
2023/10/16 13:32:03;;;;;;;7.88;2.78;;;20.20;62.90;;;;;;5136205;27;20042;-46
2023/10/16 13:34:29;;;;;;;6.30;2.60;;;20.20;62.90;;;;;;5136699;27;20035;-52
2023/10/16 13:37:01;;;;;;;7.45;2.67;;;20.20;62.90;;;;;;5136179;27;20023;-48
2023/10/16 13:39:38;;;;;;;8.57;2.85;;;20.20;63.50;;;;;;5136229;27;20114;-46
2023/10/16 13:42:08;;;;;;;5.85;2.40;;;20.20;63.20;;;;;;5135988;27;20035;-48
2023/10/16 13:44:35;;;;;;;6.13;2.40;;;20.20;62.70;;;;;;5136277;27;20049;-45
2023/10/16 13:47:05;;;;;;;4.55;2.50;;;20.20;63.30;;;;;;5136208;27;20079;-46
2023/10/16 13:49:34;;;;;;;13.63;3.28;;;20.30;62.90;;;;;;5136122;27;20083;-48
2023/10/16 13:52:00;;;;;;;6.05;2.35;;;20.20;62.10;;;;;;5135639;27;20482;-52
2023/10/16 13:54:25;;;;;;;28.42;2.75;;;20.10;60.50;;;;;;5136148;27;20027;-47
2023/10/16 13:56:51;;;;;;;10.95;2.08;;;20.00;57.10;;;;;;5135861;27;20046;-50
2023/10/16 13:59:20;;;;;;;13.10;2.03;;;19.90;56.00;;;;;;5135910;27;20031;-55
2023/10/16 14:01:46;;;;;;;15.75;2.55;;;19.90;54.90;;;;;;5135479;27;20024;-54
2023/10/16 14:04:21;;;;;;;12.82;2.45;;;19.90;55.70;;;;;;5135650;27;20015;-53
2023/10/16 14:06:54;;;;;;;19.58;2.55;;;20.00;55.40;;;;;;5134672;27;20043;-54
2023/10/16 14:09:32;;;;;;;16.48;2.50;;;20.00;54.40;;;;;;5135471;27;20023;-50
2023/10/16 14:12:00;;;;;;;15.80;2.60;;;20.00;56.00;;;;;;5135465;27;20065;-53
2023/10/16 14:14:27;;;;;;;19.08;2.72;;;20.10;56.60;;;;;;5135543;27;20067;-53
2023/10/16 14:17:16;;;;;;;10.80;2.40;;;20.10;56.90;;;;;;5135133;27;20027;-55
2023/10/16 14:19:47;;;;;;;15.00;2.75;;;20.10;57.40;;;;;;5135535;27;20393;-51
2023/10/16 14:22:16;;;;;;;15.48;2.55;;;20.10;57.60;;;;;;5135018;27;20097;-58
2023/10/16 14:24:43;;;;;;;6.30;1.83;;;20.10;57.70;;;;;;5135398;27;20087;-57
2023/10/16 14:27:09;;;;;;;8.18;1.80;;;20.10;57.80;;;;;;5135132;27;20417;-57
2023/10/16 14:29:38;;;;;;;9.05;2.17;;;20.10;58.10;;;;;;5134457;27;20490;-57
2023/10/16 14:32:04;;;;;;;11.35;2.40;;;20.10;58.30;;;;;;5135076;27;20486;-56
2023/10/16 14:34:30;;;;;;;12.70;2.78;;;20.10;58.40;;;;;;5135227;27;20031;-56
2023/10/16 14:36:58;;;;;;;5.95;2.30;;;20.10;58.60;;;;;;5135076;27;20027;-54
2023/10/16 14:39:28;;;;;;;7.65;2.10;;;20.10;58.70;;;;;;5135983;27;20061;-53
2023/10/16 14:41:54;;;;;;;;;;;20.10;58.90;;;;;;5135628;27;20028;-51
2023/10/16 14:44:20;;;;;;;9.48;2.60;;;20.10;59.00;;;;;;5135005;27;20336;-53
2023/10/16 14:46:45;;;;;;;7.82;2.13;;;20.10;59.10;;;;;;5135743;27;20023;-51
2023/10/16 14:49:11;;;;;;;7.10;2.17;;;20.10;59.20;;;;;;5135628;27;20038;-54
2023/10/16 14:51:39;;;;;;;6.32;2.50;;;20.20;59.10;;;;;;5135452;27;20038;-58
2023/10/16 14:54:10;;;;;;;7.63;2.10;;;20.20;59.10;;;;;;5135619;27;20023;-58
2023/10/16 14:56:42;;;;;;;7.18;2.38;;;20.20;59.30;;;;;;5135018;27;20031;-58
2023/10/16 14:59:11;;;;;;;8.80;1.95;;;20.20;59.40;;;;;;5135203;27;20078;-58
2023/10/16 15:01:37;;;;;;;5.88;2.30;;;20.20;59.20;;;;;;5134502;27;20114;-58
2023/10/16 15:04:08;;;;;;;9.02;2.63;;;20.20;59.30;;;;;;5134958;27;20550;-59
2023/10/16 15:06:35;;;;;;;5.53;2.38;;;20.20;59.30;;;;;;5134969;27;20019;-57